Time;durP1;ratioP1;P1;durP2;ratioP2;P2;SDS_P1;SDS_P2;PMS_P1;PMS_P2;Temp;Humidity;BMP_temperature;BMP_pressure;BME280_temperature;BME280_humidity;BME280_pressure;Samples;Min_cycle;Max_cycle;Signal;HPM_P1;HPM_P2
2021/06/28 00:00:55;;;;;;;8.35;7.38;;;;;;;;;;5033293;28;20088;-62
2021/06/28 00:03:42;;;;;;;10.38;7.88;;;;;;;;;;5033421;28;20188;-62
2021/06/28 00:06:27;;;;;;;10.88;9.70;;;;;;;;;;5033423;28;20044;-62
2021/06/28 00:09:12;;;;;;;12.55;8.98;;;;;;;;;;5032554;28;20507;-62
2021/06/28 00:11:58;;;;;;;12.93;9.23;;;;;;;;;;5031595;28;20052;-62
2021/06/28 00:14:43;;;;;;;10.50;8.65;;;;;;;;;;5030843;28;20419;-62
2021/06/28 00:17:29;;;;;;;12.98;8.48;;;;;;;;;;5033322;28;20059;-62
2021/06/28 00:20:14;;;;;;;9.98;7.90;;;;;;;;;;5031050;28;20037;-62
2021/06/28 00:23:00;;;;;;;14.65;7.63;;;;;;;;;;5033284;28;20052;-62
2021/06/28 00:25:45;;;;;;;9.98;8.45;;;;;;;;;;5033181;28;20121;-62
2021/06/28 00:28:31;;;;;;;10.82;8.23;;;;;;;;;;5032920;28;20065;-62
2021/06/28 00:31:16;;;;;;;9.82;7.60;;;;;;;;;;5032119;28;20045;-62
2021/06/28 00:34:02;;;;;;;15.77;9.05;;;;;;;;;;5032970;28;20474;-62
2021/06/28 00:36:47;;;;;;;12.00;9.60;;;;;;;;;;5032910;28;20061;-62
2021/06/28 00:39:32;;;;;;;9.93;8.43;;;;;;;;;;5031910;28;21485;-62
2021/06/28 00:42:18;;;;;;;10.70;7.75;;;;;;;;;;5032854;28;20052;-62
2021/06/28 00:45:18;;;;;;;13.02;8.85;;;;;;;;;;5032509;28;20199;-62
2021/06/28 00:48:05;;;;;;;13.25;9.13;;;;;;;;;;5032878;28;20050;-62
2021/06/28 00:50:51;;;;;;;12.85;8.88;;;;;;;;;;5020592;28;20073;-62
2021/06/28 00:53:37;;;;;;;15.95;11.05;;;;;;;;;;5032328;28;20044;-62
2021/06/28 00:56:22;;;;;;;16.60;9.82;;;;;;;;;;5031773;28;20103;-62
2021/06/28 00:59:08;;;;;;;16.13;11.25;;;;;;;;;;5032527;28;20427;-62
2021/06/28 01:01:53;;;;;;;18.13;11.75;;;;;;;;;;5030367;28;20049;-62
2021/06/28 01:04:39;;;;;;;13.77;10.90;;;;;;;;;;5032572;28;20080;-62
2021/06/28 01:07:24;;;;;;;14.93;10.75;;;;;;;;;;5032352;28;20130;-62
2021/06/28 01:10:10;;;;;;;14.15;11.25;;;;;;;;;;5032086;28;20060;-62
2021/06/28 01:12:55;;;;;;;16.45;11.45;;;;;;;;;;5031730;28;20052;-62
2021/06/28 01:15:41;;;;;;;14.30;10.25;;;;;;;;;;5032288;28;20454;-62
2021/06/28 01:18:26;;;;;;;16.13;10.52;;;;;;;;;;5031108;28;20068;-62
2021/06/28 01:21:12;;;;;;;13.93;9.43;;;;;;;;;;5030133;28;20041;-62
2021/06/28 01:23:57;;;;;;;18.52;10.90;;;;;;;;;;5032078;28;20050;-62
2021/06/28 01:26:42;;;;;;;15.15;9.82;;;;;;;;;;5031330;28;20045;-62
2021/06/28 01:29:27;;;;;;;17.63;10.43;;;;;;;;;;5030843;28;20076;-62
2021/06/28 01:32:13;;;;;;;12.15;8.88;;;;;;;;;;5030200;28;20045;-62
2021/06/28 01:34:59;;;;;;;15.85;10.50;;;;;;;;;;5031972;28;20467;-62
2021/06/28 01:37:46;;;;;;;15.43;11.07;;;;;;;;;;5032201;28;20428;-62
2021/06/28 01:40:31;;;;;;;16.80;11.35;;;;;;;;;;5031858;28;20499;-62
2021/06/28 01:43:16;;;;;;;14.63;9.75;;;;;;;;;;5031029;28;20128;-62
2021/06/28 01:46:01;;;;;;;16.52;9.90;;;;;;;;;;5032124;28;20125;-62
2021/06/28 01:48:47;;;;;;;14.18;10.95;;;;;;;;;;5031876;28;20518;-62
2021/06/28 01:51:32;;;;;;;14.48;10.98;;;;;;;;;;5031676;28;20407;-62
2021/06/28 01:54:17;;;;;;;16.80;11.05;;;;;;;;;;5031028;28;20069;-62
2021/06/28 01:57:03;;;;;;;16.40;10.63;;;;;;;;;;5031837;28;20415;-62
2021/06/28 01:59:48;;;;;;;16.42;10.38;;;;;;;;;;5031650;28;20053;-62
2021/06/28 02:02:34;;;;;;;16.08;10.40;;;;;;;;;;5029898;28;20041;-62
2021/06/28 02:05:19;;;;;;;17.73;11.52;;;;;;;;;;5031834;28;20045;-62
2021/06/28 02:08:05;;;;;;;14.98;11.18;;;;;;;;;;5031637;28;20415;-62
2021/06/28 02:10:51;;;;;;;19.00;11.30;;;;;;;;;;5031391;28;20474;-62
2021/06/28 02:13:37;;;;;;;14.85;10.85;;;;;;;;;;5030654;28;20045;-62
2021/06/28 02:16:23;;;;;;;15.38;11.02;;;;;;;;;;5031712;28;20045;-63
2021/06/28 02:19:08;;;;;;;16.73;11.45;;;;;;;;;;5031408;28;20045;-62
2021/06/28 02:21:54;;;;;;;15.57;11.40;;;;;;;;;;5031811;28;20045;-62
2021/06/28 02:24:39;;;;;;;13.40;10.18;;;;;;;;;;5032416;28;20057;-62
2021/06/28 02:27:24;;;;;;;19.42;12.63;;;;;;;;;;5035361;28;20045;-62
2021/06/28 02:30:11;;;;;;;17.30;11.75;;;;;;;;;;5035007;28;20491;-62
2021/06/28 02:32:56;;;;;;;15.77;11.52;;;;;;;;;;5034441;28;20248;-62
2021/06/28 02:35:41;;;;;;;17.85;11.05;;;;;;;;;;5034287;28;20053;-62
2021/06/28 02:38:27;;;;;;;18.00;11.40;;;;;;;;;;5035501;28;20048;-62
2021/06/28 02:41:12;;;;;;;16.17;10.75;;;;;;;;;;5034806;28;20033;-62
2021/06/28 02:43:58;;;;;;;17.48;12.57;;;;;;;;;;5033928;28;20040;-62
2021/06/28 02:46:43;;;;;;;15.20;11.38;;;;;;;;;;5035189;28;20057;-62
2021/06/28 02:49:29;;;;;;;18.17;11.93;;;;;;;;;;5034866;28;20048;-62
2021/06/28 02:52:14;;;;;;;18.52;12.20;;;;;;;;;;5029057;28;20038;-62
2021/06/28 02:55:00;;;;;;;21.65;12.95;;;;;;;;;;5024592;28;20084;-62
2021/06/28 02:57:45;;;;;;;21.33;13.48;;;;;;;;;;5034730;28;20049;-63
2021/06/28 03:00:30;;;;;;;19.75;13.77;;;;;;;;;;5034566;28;20046;-62
2021/06/28 03:03:16;;;;;;;15.48;11.65;;;;;;;;;;5034795;28;20041;-62
2021/06/28 03:06:02;;;;;;;17.80;12.73;;;;;;;;;;5032737;28;20511;-62
2021/06/28 03:08:47;;;;;;;19.13;12.40;;;;;;;;;;5034526;28;20042;-63
2021/06/28 03:11:33;;;;;;;16.00;13.00;;;;;;;;;;5034583;28;20069;-63
2021/06/28 03:14:18;;;;;;;17.85;11.50;;;;;;;;;;5034651;28;20500;-62
2021/06/28 03:17:04;;;;;;;14.90;11.30;;;;;;;;;;5034598;28;20061;-62
2021/06/28 03:19:49;;;;;;;19.23;12.82;;;;;;;;;;5034371;28;20061;-62
2021/06/28 03:22:35;;;;;;;15.80;11.25;;;;;;;;;;5034509;28;20045;-62
2021/06/28 03:25:20;;;;;;;17.67;12.75;;;;;;;;;;5032782;28;20053;-62
2021/06/28 03:28:05;;;;;;;18.08;13.05;;;;;;;;;;5034502;28;20041;-62
2021/06/28 03:30:51;;;;;;;15.90;10.82;;;;;;;;;;5033925;28;20642;-63
2021/06/28 03:33:37;;;;;;;19.85;12.18;;;;;;;;;;5034175;28;20053;-62
2021/06/28 03:36:22;;;;;;;16.13;12.40;;;;;;;;;;5030917;28;20053;-62
2021/06/28 03:39:07;;;;;;;16.80;11.10;;;;;;;;;;5034283;28;20053;-62
2021/06/28 03:41:53;;;;;;;18.77;12.55;;;;;;;;;;5033087;28;20057;-62
2021/06/28 03:44:40;;;;;;;15.73;11.98;;;;;;;;;;5034164;28;20111;-62
2021/06/28 03:47:25;;;;;;;19.58;12.55;;;;;;;;;;5031608;28;20033;-62
2021/06/28 03:50:11;;;;;;;16.73;13.32;;;;;;;;;;5033584;28;20049;-62
2021/06/28 03:52:56;;;;;;;13.52;11.82;;;;;;;;;;5033889;28;20104;-62
2021/06/28 03:55:42;;;;;;;18.83;12.43;;;;;;;;;;5033901;28;20192;-62
2021/06/28 03:58:27;;;;;;;15.30;11.63;;;;;;;;;;5026979;28;20072;-62
2021/06/28 04:01:12;;;;;;;17.23;11.75;;;;;;;;;;5013482;28;20566;-62
2021/06/28 04:03:58;;;;;;;17.13;11.02;;;;;;;;;;5013905;28;20050;-62
2021/06/28 04:06:43;;;;;;;16.98;12.27;;;;;;;;;;5017223;28;20112;-62
2021/06/28 04:09:29;;;;;;;18.42;11.60;;;;;;;;;;5033221;28;20103;-62
2021/06/28 04:12:14;;;;;;;16.40;11.45;;;;;;;;;;5033688;28;20085;-63
2021/06/28 04:15:00;;;;;;;17.67;10.77;;;;;;;;;;5033369;28;20060;-63
2021/06/28 04:17:46;;;;;;;14.02;11.27;;;;;;;;;;5032184;28;20053;-63
2021/06/28 04:20:31;;;;;;;14.43;10.85;;;;;;;;;;5033085;28;20395;-63
2021/06/28 04:23:17;;;;;;;17.70;10.65;;;;;;;;;;5033093;28;20061;-63
2021/06/28 04:26:02;;;;;;;13.68;10.25;;;;;;;;;;5032171;28;20048;-63
2021/06/28 04:28:47;;;;;;;13.80;11.18;;;;;;;;;;5032381;28;20045;-63
2021/06/28 04:31:35;;;;;;;12.65;10.50;;;;;;;;;;5032931;28;20423;-63
2021/06/28 04:34:20;;;;;;;16.45;11.02;;;;;;;;;;5032898;28;20050;-63
2021/06/28 04:37:05;;;;;;;14.43;10.93;;;;;;;;;;5033293;28;20407;-63
2021/06/28 04:39:50;;;;;;;16.67;10.73;;;;;;;;;;5016334;28;20492;-63
2021/06/28 04:42:36;;;;;;;13.93;10.80;;;;;;;;;;5032693;28;20049;-63
2021/06/28 04:45:22;;;;;;;16.25;10.52;;;;;;;;;;5032794;28;20439;-63
2021/06/28 04:48:08;;;;;;;19.85;12.00;;;;;;;;;;5030940;28;20487;-63
2021/06/28 04:50:54;;;;;;;16.65;10.57;;;;;;;;;;5032301;28;20132;-63
2021/06/28 04:53:39;;;;;;;16.45;11.98;;;;;;;;;;5032637;28;20048;-63
2021/06/28 04:56:24;;;;;;;15.77;12.02;;;;;;;;;;5032604;28;20515;-63
2021/06/28 04:59:10;;;;;;;17.70;10.77;;;;;;;;;;5031676;28;20057;-63
2021/06/28 05:01:55;;;;;;;12.63;10.50;;;;;;;;;;5032575;28;20049;-63
2021/06/28 05:04:41;;;;;;;15.27;10.60;;;;;;;;;;5032580;28;20072;-63
2021/06/28 05:07:26;;;;;;;12.60;10.68;;;;;;;;;;5032344;28;20518;-63
2021/06/28 05:10:12;;;;;;;16.05;10.65;;;;;;;;;;5031105;28;20095;-63
2021/06/28 05:12:57;;;;;;;16.38;11.23;;;;;;;;;;5032120;28;20075;-63
2021/06/28 05:15:43;;;;;;;17.65;12.20;;;;;;;;;;5032138;28;20522;-63
2021/06/28 05:18:28;;;;;;;17.90;11.88;;;;;;;;;;5032336;28;20045;-63
2021/06/28 05:21:14;;;;;;;16.55;11.75;;;;;;;;;;5021420;28;20139;-62
2021/06/28 05:23:59;;;;;;;14.15;10.63;;;;;;;;;;5032216;28;20053;-62
2021/06/28 05:26:48;;;;;;;21.15;11.40;;;;;;;;;;5032231;28;20514;-62
2021/06/28 05:29:33;;;;;;;14.48;11.02;;;;;;;;;;5030242;28;20068;-62
2021/06/28 05:32:18;;;;;;;15.95;10.25;;;;;;;;;;5032063;28;20447;-62
2021/06/28 05:35:04;;;;;;;12.48;9.38;;;;;;;;;;5032017;28;20056;-62
2021/06/28 05:37:50;;;;;;;13.85;9.18;;;;;;;;;;5031961;28;20045;-63
2021/06/28 05:40:35;;;;;;;13.68;9.82;;;;;;;;;;5030294;28;20049;-63
2021/06/28 05:43:20;;;;;;;16.30;9.77;;;;;;;;;;5031954;28;20128;-63
2021/06/28 05:46:06;;;;;;;14.48;9.15;;;;;;;;;;5031170;28;20046;-63
2021/06/28 05:48:51;;;;;;;13.02;9.38;;;;;;;;;;5031858;28;20458;-63
2021/06/28 05:51:37;;;;;;;12.38;8.73;;;;;;;;;;5030250;28;20064;-63
2021/06/28 05:54:22;;;;;;;10.95;9.05;;;;;;;;;;5031849;28;20157;-63
2021/06/28 05:57:08;;;;;;;15.82;9.60;;;;;;;;;;5031880;28;20049;-63
2021/06/28 05:59:56;;;;;;;13.52;9.90;;;;;;;;;;5034924;28;20057;-63
2021/06/28 06:02:42;;;;;;;12.82;9.30;;;;;;;;;;5017573;28;20140;-63
2021/06/28 06:05:28;;;;;;;14.88;9.93;;;;;;;;;;5034110;28;20052;-63
2021/06/28 06:08:13;;;;;;;16.65;10.82;;;;;;;;;;5034995;28;20046;-63
2021/06/28 06:10:59;;;;;;;14.38;10.35;;;;;;;;;;5033951;28;20119;-63
2021/06/28 06:13:45;;;;;;;11.45;9.48;;;;;;;;;;5035410;28;20508;-63
2021/06/28 06:16:31;;;;;;;13.40;10.38;;;;;;;;;;5035609;28;20058;-63
2021/06/28 06:19:16;;;;;;;13.27;9.88;;;;;;;;;;5035627;28;20151;-62
2021/06/28 06:22:02;;;;;;;11.98;10.40;;;;;;;;;;5034664;28;20455;-62
2021/06/28 06:24:47;;;;;;;12.45;9.88;;;;;;;;;;5035412;28;20085;-62
2021/06/28 06:27:32;;;;;;;11.85;8.57;;;;;;;;;;5035656;28;20064;-62
2021/06/28 06:30:18;;;;;;;12.32;10.73;;;;;;;;;;5035266;28;20052;-62
2021/06/28 06:33:06;;;;;;;12.35;10.70;;;;;;;;;;5033063;28;20042;-62
2021/06/28 06:35:52;;;;;;;12.00;10.23;;;;;;;;;;5035455;28;20045;-62
2021/06/28 06:38:37;;;;;;;15.63;10.43;;;;;;;;;;5035330;28;20124;-62
2021/06/28 06:41:23;;;;;;;15.02;10.65;;;;;;;;;;5033947;28;20041;-62
2021/06/28 06:44:08;;;;;;;14.02;10.82;;;;;;;;;;5034816;28;20041;-62
2021/06/28 06:46:53;;;;;;;12.98;10.75;;;;;;;;;;5034050;28;20152;-62
2021/06/28 06:49:39;;;;;;;13.10;11.15;;;;;;;;;;5034116;28;20052;-62
2021/06/28 06:52:24;;;;;;;13.15;10.18;;;;;;;;;;5034365;28;20080;-62
2021/06/28 06:55:10;;;;;;;13.70;10.35;;;;;;;;;;5035123;28;20057;-63
2021/06/28 06:57:55;;;;;;;14.43;10.90;;;;;;;;;;5034376;28;20053;-62
2021/06/28 07:01:01;;;;;;;12.40;11.05;;;;;;;;;;5032171;28;20407;-62
2021/06/28 07:03:46;;;;;;;10.95;9.85;;;;;;;;;;5034778;28;20393;-62
2021/06/28 07:06:32;;;;;;;14.15;10.88;;;;;;;;;;5034662;28;20046;-62
2021/06/28 07:09:17;;;;;;;14.88;11.45;;;;;;;;;;5034217;28;20095;-62
2021/06/28 07:12:02;;;;;;;12.32;10.50;;;;;;;;;;5033797;28;20052;-62
2021/06/28 07:14:48;;;;;;;13.05;10.63;;;;;;;;;;5034593;28;20045;-62
2021/06/28 07:17:34;;;;;;;14.32;10.57;;;;;;;;;;5034566;28;20050;-62
2021/06/28 07:20:21;;;;;;;10.80;9.55;;;;;;;;;;5034231;28;20436;-62
2021/06/28 07:23:07;;;;;;;11.55;9.60;;;;;;;;;;5033508;28;20472;-62
2021/06/28 07:25:53;;;;;;;11.73;9.80;;;;;;;;;;5034565;28;20439;-62
2021/06/28 07:28:39;;;;;;;11.75;9.98;;;;;;;;;;5034349;28;20539;-62
2021/06/28 07:31:24;;;;;;;10.70;9.48;;;;;;;;;;5033109;28;20080;-62
2021/06/28 07:34:10;;;;;;;10.60;9.50;;;;;;;;;;5034375;28;20050;-62
2021/06/28 07:36:55;;;;;;;10.95;9.85;;;;;;;;;;5034267;28;20127;-63
2021/06/28 07:39:40;;;;;;;9.85;8.82;;;;;;;;;;5033947;28;20045;-62
2021/06/28 07:42:26;;;;;;;11.13;8.77;;;;;;;;;;5032223;28;20037;-63
2021/06/28 07:45:12;;;;;;;10.73;9.27;;;;;;;;;;5034109;28;20046;-62
2021/06/28 07:47:58;;;;;;;11.95;9.38;;;;;;;;;;5033982;28;20091;-62
2021/06/28 07:50:43;;;;;;;9.90;8.90;;;;;;;;;;5033905;28;20119;-62
2021/06/28 07:53:28;;;;;;;9.70;8.57;;;;;;;;;;5033244;28;20060;-62
2021/06/28 07:56:14;;;;;;;10.35;9.20;;;;;;;;;;5033852;28;20049;-63
2021/06/28 07:59:00;;;;;;;9.55;8.55;;;;;;;;;;5034027;28;20046;-62
2021/06/28 08:01:45;;;;;;;10.82;8.82;;;;;;;;;;5032703;28;20472;-62
2021/06/28 08:04:30;;;;;;;9.50;8.43;;;;;;;;;;5033747;28;20079;-63
2021/06/28 08:07:16;;;;;;;9.95;8.80;;;;;;;;;;5033738;28;20049;-63
2021/06/28 08:10:05;;;;;;;9.07;8.18;;;;;;;;;;5033453;28;20565;-64
2021/06/28 08:12:51;;;;;;;8.52;7.65;;;;;;;;;;5032421;28;20458;-64
2021/06/28 08:15:38;;;;;;;9.40;8.40;;;;;;;;;;5033702;28;20045;-65
2021/06/28 08:18:23;;;;;;;9.75;8.10;;;;;;;;;;5033473;28;20045;-64
2021/06/28 08:21:09;;;;;;;9.35;8.02;;;;;;;;;;5031590;28;20736;-65
2021/06/28 08:23:54;;;;;;;8.57;7.57;;;;;;;;;;5032672;28;20079;-65
2021/06/28 08:26:40;;;;;;;11.18;8.93;;;;;;;;;;5033320;28;20056;-64
2021/06/28 08:29:25;;;;;;;13.50;8.50;;;;;;;;;;5033139;28;20050;-64
2021/06/28 08:32:11;;;;;;;10.65;8.98;;;;;;;;;;5031735;28;20122;-64
2021/06/28 08:34:59;;;;;;;10.05;8.77;;;;;;;;;;5027615;28;20080;-65
2021/06/28 08:37:44;;;;;;;8.88;7.95;;;;;;;;;;5032979;28;20496;-65
2021/06/28 08:40:29;;;;;;;10.27;8.02;;;;;;;;;;5032700;28;20168;-64
2021/06/28 08:43:15;;;;;;;9.00;7.88;;;;;;;;;;5045187;28;20389;-65
2021/06/28 08:46:00;;;;;;;8.27;7.32;;;;;;;;;;5031768;28;20157;-64
2021/06/28 08:48:45;;;;;;;8.30;7.50;;;;;;;;;;5033001;28;20052;-65
2021/06/28 08:51:31;;;;;;;9.65;8.35;;;;;;;;;;5031871;28;20041;-65
2021/06/28 08:54:17;;;;;;;7.32;6.63;;;;;;;;;;5021278;28;20569;-65
2021/06/28 08:57:02;;;;;;;8.77;7.68;;;;;;;;;;5023497;28;20045;-65
2021/06/28 08:59:48;;;;;;;8.52;7.72;;;;;;;;;;5023203;28;20056;-65
2021/06/28 09:02:34;;;;;;;7.28;6.57;;;;;;;;;;5022932;28;20412;-65
2021/06/28 09:05:19;;;;;;;9.32;6.78;;;;;;;;;;5019845;28;20419;-65
2021/06/28 09:08:12;;;;;;;8.85;8.05;;;;;;;;;;5032585;28;20054;-66
2021/06/28 09:10:57;;;;;;;7.85;7.15;;;;;;;;;;5024329;28;20063;-65
2021/06/28 09:13:43;;;;;;;7.72;7.03;;;;;;;;;;5025238;28;20180;-65
2021/06/28 09:16:29;;;;;;;10.23;7.45;;;;;;;;;;5023007;28;20598;-65
2021/06/28 09:19:16;;;;;;;7.15;6.55;;;;;;;;;;5023293;28;20045;-65
2021/06/28 09:22:02;;;;;;;7.20;6.53;;;;;;;;;;5031108;28;20042;-65
2021/06/28 09:24:50;;;;;;;7.57;6.95;;;;;;;;;;5032072;28;20053;-65
2021/06/28 09:27:44;;;;;;;7.32;6.55;;;;;;;;;;5031994;28;20045;-65
2021/06/28 09:30:31;;;;;;;6.90;6.25;;;;;;;;;;5031910;28;20041;-66
2021/06/28 09:33:19;;;;;;;6.78;6.15;;;;;;;;;;5030909;28;20046;-63
2021/06/28 09:36:17;;;;;;;7.70;6.40;;;;;;;;;;5032123;28;20055;-63
2021/06/28 09:39:15;;;;;;;8.18;7.05;;;;;;;;;;5032115;28;20041;-63
2021/06/28 09:42:14;;;;;;;7.70;6.93;;;;;;;;;;5031123;28;20185;-64
2021/06/28 09:45:09;;;;;;;7.38;6.68;;;;;;;;;;5031751;28;20395;-64
2021/06/28 09:47:55;;;;;;;8.07;7.38;;;;;;;;;;5032001;28;20056;-64
2021/06/28 09:50:40;;;;;;;7.55;6.75;;;;;;;;;;5031643;28;20518;-64
2021/06/28 09:53:28;;;;;;;8.25;7.38;;;;;;;;;;5024228;28;20127;-64
2021/06/28 09:56:32;;;;;;;7.40;6.70;;;;;;;;;;5020661;28;20049;-63
2021/06/28 09:59:21;;;;;;;6.88;6.28;;;;;;;;;;5022302;28;20522;-64
2021/06/28 10:02:12;;;;;;;7.72;6.40;;;;;;;;;;5021717;28;20049;-64
2021/06/28 10:07:45;;;;;;;7.95;7.25;;;;;;;;;;5011854;28;20056;-64
2021/06/28 10:10:31;;;;;;;7.80;6.00;;;;;;;;;;5011630;28;20132;-64
2021/06/28 10:13:16;;;;;;;6.75;6.15;;;;;;;;;;5016768;28;20115;-64
2021/06/28 10:16:02;;;;;;;7.97;6.65;;;;;;;;;;5031392;28;20120;-65
2021/06/28 10:18:47;;;;;;;8.18;6.18;;;;;;;;;;5039852;22;21272;-64
2021/06/28 10:21:32;;;;;;;6.25;5.55;;;;;;;;;;5013065;28;20048;-64
2021/06/28 10:24:18;;;;;;;7.13;5.80;;;;;;;;;;5026118;28;20053;-65
2021/06/28 10:27:05;;;;;;;7.53;6.72;;;;;;;;;;5007468;28;20426;-64
2021/06/28 10:29:50;;;;;;;7.03;6.43;;;;;;;;;;5010293;28;20045;-65
2021/06/28 10:32:36;;;;;;;7.10;6.45;;;;;;;;;;5014216;28;20053;-64
2021/06/28 10:35:25;;;;;;;7.45;6.57;;;;;;;;;;5010560;28;20048;-64
2021/06/28 10:38:14;;;;;;;7.25;6.45;;;;;;;;;;5010029;28;20130;-64
2021/06/28 10:41:01;;;;;;;9.18;6.00;;;;;;;;;;5028874;28;20069;-66
2021/06/28 10:43:47;;;;;;;6.07;5.47;;;;;;;;;;5023187;28;20041;-65
2021/06/28 10:46:33;;;;;;;8.10;6.00;;;;;;;;;;5017664;28;20049;-65
2021/06/28 10:49:37;;;;;;;6.82;5.30;;;;;;;;;;5034853;28;20053;-65
2021/06/28 10:52:34;;;;;;;6.35;5.75;;;;;;;;;;5034316;28;20056;-65
2021/06/28 10:55:20;;;;;;;6.53;5.50;;;;;;;;;;5033651;28;20115;-65
2021/06/28 10:58:11;;;;;;;5.90;5.40;;;;;;;;;;5035119;28;20127;-65
2021/06/28 11:01:00;;;;;;;12.35;5.28;;;;;;;;;;5019062;28;20107;-65
2021/06/28 11:03:46;;;;;;;8.60;5.13;;;;;;;;;;5034909;28;20125;-66
2021/06/28 11:06:32;;;;;;;7.47;6.05;;;;;;;;;;5020153;28;20053;-65
2021/06/28 11:09:17;;;;;;;7.03;6.43;;;;;;;;;;5035231;28;20049;-65
2021/06/28 11:12:03;;;;;;;6.43;5.82;;;;;;;;;;5034778;28;20052;-66
2021/06/28 11:14:52;;;;;;;6.93;6.13;;;;;;;;;;5032349;28;20411;-66
2021/06/28 11:17:47;;;;;;;6.45;5.90;;;;;;;;;;5034639;28;20560;-66
2021/06/28 11:20:38;;;;;;;8.35;7.35;;;;;;;;;;5028891;28;20077;-65
2021/06/28 11:23:24;;;;;;;6.63;5.75;;;;;;;;;;5014834;28;20500;-65
2021/06/28 11:26:09;;;;;;;6.60;5.95;;;;;;;;;;5027097;28;20048;-65
2021/06/28 11:28:56;;;;;;;7.43;5.95;;;;;;;;;;5009443;28;20060;-66
2021/06/28 11:31:41;;;;;;;5.45;4.95;;;;;;;;;;5005581;28;20044;-65
2021/06/28 11:34:43;;;;;;;5.88;5.38;;;;;;;;;;5034388;28;20057;-66
2021/06/28 11:37:32;;;;;;;7.88;6.93;;;;;;;;;;5014390;28;20060;-65
2021/06/28 11:40:17;;;;;;;7.47;6.20;;;;;;;;;;5014171;28;20415;-65
2021/06/28 11:43:02;;;;;;;5.38;4.93;;;;;;;;;;5027914;28;20052;-65
2021/06/28 11:45:51;;;;;;;5.38;4.85;;;;;;;;;;5033202;28;20064;-65
2021/06/28 11:48:40;;;;;;;5.55;5.10;;;;;;;;;;5034118;28;20053;-65
2021/06/28 11:51:26;;;;;;;5.90;4.53;;;;;;;;;;5033753;28;20056;-66
2021/06/28 11:54:12;;;;;;;5.38;4.65;;;;;;;;;;5034180;28;20127;-65
2021/06/28 11:57:01;;;;;;;6.22;5.32;;;;;;;;;;5017721;28;20052;-65
2021/06/28 11:59:50;;;;;;;6.00;5.38;;;;;;;;;;5018487;28;20046;-66
2021/06/28 12:02:35;;;;;;;5.38;4.88;;;;;;;;;;4992805;28;20081;-65
2021/06/28 12:05:27;;;;;;;6.28;4.78;;;;;;;;;;5013939;28;20411;-65
2021/06/28 12:08:13;;;;;;;5.13;4.72;;;;;;;;;;5015707;28;20049;-66
2021/06/28 12:10:59;;;;;;;7.25;5.25;;;;;;;;;;5029459;28;20037;-65
2021/06/28 12:13:45;;;;;;;5.30;4.90;;;;;;;;;;5033446;28;20044;-66
2021/06/28 12:16:30;;;;;;;8.60;4.45;;;;;;;;;;5017456;28;20146;-65
2021/06/28 12:19:16;;;;;;;5.15;4.75;;;;;;;;;;5032793;28;20049;-65
2021/06/28 12:22:13;;;;;;;4.65;4.25;;;;;;;;;;5032560;28;20073;-65
2021/06/28 12:24:59;;;;;;;6.00;5.50;;;;;;;;;;5031745;28;20403;-65
2021/06/28 12:27:44;;;;;;;5.68;5.18;;;;;;;;;;5031466;28;20047;-65
2021/06/28 12:30:30;;;;;;;5.78;5.07;;;;;;;;;;5030618;28;20522;-65
2021/06/28 12:33:16;;;;;;;8.88;5.38;;;;;;;;;;5031216;28;20083;-65
2021/06/28 12:36:01;;;;;;;5.28;4.60;;;;;;;;;;5017808;28;20046;-65
2021/06/28 12:38:47;;;;;;;5.70;4.90;;;;;;;;;;5030860;28;20172;-65
2021/06/28 12:41:32;;;;;;;5.00;4.53;;;;;;;;;;5016687;28;20056;-66
2021/06/28 12:44:17;;;;;;;5.10;4.70;;;;;;;;;;5031766;28;20119;-65
2021/06/28 12:47:02;;;;;;;8.50;6.38;;;;;;;;;;5030130;28;20060;-65
2021/06/28 12:49:48;;;;;;;13.07;9.20;;;;;;;;;;5015884;28;20123;-65
2021/06/28 12:52:34;;;;;;;5.60;5.10;;;;;;;;;;5030256;28;20056;-65
2021/06/28 12:55:21;;;;;;;6.40;5.80;;;;;;;;;;4997691;28;20411;-65
2021/06/28 12:58:08;;;;;;;6.78;4.68;;;;;;;;;;5012796;28;20111;-65
2021/06/28 13:00:54;;;;;;;5.90;4.90;;;;;;;;;;5029804;28;20057;-65
2021/06/28 13:03:39;;;;;;;5.65;5.10;;;;;;;;;;5031109;28;20042;-65
2021/06/28 13:06:24;;;;;;;6.72;5.75;;;;;;;;;;5031807;28;20056;-65
2021/06/28 13:09:16;;;;;;;6.07;5.47;;;;;;;;;;5031913;28;20558;-65
2021/06/28 13:12:02;;;;;;;5.72;5.22;;;;;;;;;;5029858;28;20046;-65
2021/06/28 13:14:57;;;;;;;6.75;5.88;;;;;;;;;;5012825;28;20052;-65
2021/06/28 13:17:42;;;;;;;6.75;5.65;;;;;;;;;;5012891;28;20064;-65
2021/06/28 13:20:30;;;;;;;6.47;5.85;;;;;;;;;;5026259;28;20063;-65
2021/06/28 13:23:22;;;;;;;8.05;6.18;;;;;;;;;;5032332;28;20048;-64
2021/06/28 13:26:12;;;;;;;6.85;6.22;;;;;;;;;;5031172;28;20494;-66
2021/06/28 13:28:58;;;;;;;7.18;5.78;;;;;;;;;;5032227;28;20423;-65
2021/06/28 13:31:56;;;;;;;5.53;5.03;;;;;;;;;;5032014;28;20542;-65
2021/06/28 13:34:41;;;;;;;6.53;5.03;;;;;;;;;;5031312;28;20056;-65
2021/06/28 13:37:27;;;;;;;5.85;5.35;;;;;;;;;;5031059;28;20107;-67
2021/06/28 13:40:16;;;;;;;6.70;6.00;;;;;;;;;;5017544;28;20050;-66
2021/06/28 13:43:01;;;;;;;6.43;5.82;;;;;;;;;;5029572;28;20570;-65
2021/06/28 13:45:47;;;;;;;5.65;5.07;;;;;;;;;;5025787;28;20415;-65
2021/06/28 13:48:32;;;;;;;6.20;5.50;;;;;;;;;;5011342;28;20169;-65
2021/06/28 13:51:19;;;;;;;6.22;5.72;;;;;;;;;;5018268;28;20176;-65
2021/06/28 13:54:05;;;;;;;6.15;5.68;;;;;;;;;;5016363;28;20057;-65
2021/06/28 13:56:50;;;;;;;6.15;5.55;;;;;;;;;;5030218;28;20057;-65
2021/06/28 13:59:35;;;;;;;6.00;5.47;;;;;;;;;;5030862;28;20048;-65
2021/06/28 14:02:21;;;;;;;7.32;5.63;;;;;;;;;;5009768;28;20053;-65
2021/06/28 14:05:07;;;;;;;7.30;5.97;;;;;;;;;;5026460;28;20049;-65
2021/06/28 14:07:52;;;;;;;5.95;5.35;;;;;;;;;;5016850;28;20053;-64
2021/06/28 14:10:37;;;;;;;6.30;5.72;;;;;;;;;;5017027;28;20435;-64
2021/06/28 14:13:22;;;;;;;6.55;5.95;;;;;;;;;;5029114;28;20622;-65
2021/06/28 14:16:08;;;;;;;6.35;5.75;;;;;;;;;;5028841;28;20115;-65
2021/06/28 14:18:53;;;;;;;8.30;6.28;;;;;;;;;;5027201;28;20060;-66
2021/06/28 14:21:38;;;;;;;6.18;5.68;;;;;;;;;;5032375;28;20060;-64
2021/06/28 14:24:23;;;;;;;7.05;6.32;;;;;;;;;;5031139;28;20044;-65
2021/06/28 14:27:09;;;;;;;6.80;5.68;;;;;;;;;;5032953;28;20060;-65
2021/06/28 14:29:55;;;;;;;6.07;5.57;;;;;;;;;;5032586;28;20498;-65
2021/06/28 14:32:40;;;;;;;9.20;5.93;;;;;;;;;;5017627;28;20148;-65
2021/06/28 14:35:27;;;;;;;6.38;5.88;;;;;;;;;;5025342;28;20415;-64
2021/06/28 14:38:13;;;;;;;5.80;5.38;;;;;;;;;;5022491;28;20486;-64
2021/06/28 14:40:59;;;;;;;6.60;6.00;;;;;;;;;;5019664;28;20749;-65
2021/06/28 14:43:44;;;;;;;6.18;5.57;;;;;;;;;;5030922;28;20055;-65
2021/06/28 14:46:30;;;;;;;6.38;5.78;;;;;;;;;;5030852;28;20537;-64
2021/06/28 14:49:15;;;;;;;6.40;5.90;;;;;;;;;;5032701;28;20781;-64
2021/06/28 14:52:00;;;;;;;6.80;6.30;;;;;;;;;;5030305;28;20522;-65
2021/06/28 14:54:45;;;;;;;6.35;5.85;;;;;;;;;;5014535;28;20049;-65
2021/06/28 14:57:31;;;;;;;6.22;5.60;;;;;;;;;;5016672;28;20060;-65
2021/06/28 15:00:16;;;;;;;6.30;5.70;;;;;;;;;;5032218;28;20114;-65
2021/06/28 15:03:02;;;;;;;6.57;5.97;;;;;;;;;;5020067;28;20064;-65
2021/06/28 15:05:47;;;;;;;9.77;5.93;;;;;;;;;;5012254;28;20078;-65
2021/06/28 15:08:37;;;;;;;6.63;5.80;;;;;;;;;;5015065;28;20044;-65
2021/06/28 15:11:22;;;;;;;6.53;5.93;;;;;;;;;;5032288;28;20176;-65
2021/06/28 15:14:08;;;;;;;6.55;6.00;;;;;;;;;;5031824;28;20048;-65
2021/06/28 15:16:53;;;;;;;7.00;6.25;;;;;;;;;;5032050;28;20061;-65
2021/06/28 15:19:39;;;;;;;6.70;6.05;;;;;;;;;;5028213;28;20149;-65
2021/06/28 15:22:24;;;;;;;6.20;5.60;;;;;;;;;;5031462;28;20051;-65
2021/06/28 15:25:10;;;;;;;6.07;5.10;;;;;;;;;;5032261;28;20120;-64
2021/06/28 15:27:55;;;;;;;6.60;6.00;;;;;;;;;;5019122;28;20052;-65
2021/06/28 15:30:41;;;;;;;7.30;6.60;;;;;;;;;;5010929;28;20070;-66
2021/06/28 15:33:26;;;;;;;7.35;6.57;;;;;;;;;;5010178;28;20045;-65
2021/06/28 15:36:12;;;;;;;8.88;7.28;;;;;;;;;;5011651;28;20049;-65
2021/06/28 15:38:57;;;;;;;7.40;6.70;;;;;;;;;;5010982;28;20730;-65
2021/06/28 15:41:43;;;;;;;8.25;7.03;;;;;;;;;;4998343;28;20054;-65
2021/06/28 15:44:29;;;;;;;9.43;6.32;;;;;;;;;;5012195;28;20114;-65
2021/06/28 15:47:14;;;;;;;9.30;7.30;;;;;;;;;;5027902;28;20523;-65
2021/06/28 15:49:59;;;;;;;8.18;7.47;;;;;;;;;;5009325;28;20063;-65
2021/06/28 15:52:45;;;;;;;7.95;7.20;;;;;;;;;;5006209;28;20061;-65
2021/06/28 15:55:30;;;;;;;8.07;7.30;;;;;;;;;;5024253;28;20172;-65
2021/06/28 15:58:15;;;;;;;8.93;7.68;;;;;;;;;;5019815;28;20192;-65
2021/06/28 16:01:01;;;;;;;16.60;15.10;;;;;;;;;;5015358;28;20053;-65
2021/06/28 16:03:46;;;;;;;9.88;9.02;;;;;;;;;;5012844;28;20547;-65
2021/06/28 16:06:32;;;;;;;9.32;8.32;;;;;;;;;;5014001;28;20064;-65
2021/06/28 16:09:17;;;;;;;39.90;36.47;;;;;;;;;;5010972;28;20057;-65
2021/06/28 16:12:02;;;;;;;50.88;46.65;;;;;;;;;;5011378;28;20504;-65
2021/06/28 16:14:48;;;;;;;41.00;37.53;;;;;;;;;;5015419;28;20132;-66
2021/06/28 16:17:33;;;;;;;14.02;12.23;;;;;;;;;;5011889;28;20061;-65
2021/06/28 16:20:18;;;;;;;13.20;9.10;;;;;;;;;;5014120;28;20526;-66
2021/06/28 16:23:04;;;;;;;15.13;13.73;;;;;;;;;;5026965;28;20191;-65
2021/06/28 16:25:49;;;;;;;22.65;20.73;;;;;;;;;;5011056;28;20044;-64